sensor_id;sensor_type;location;lat;lon;timestamp;temperature;humidity
64869;DHT22;51349;52.424;10.840;2022-09-25T00:01:42;12.10;99.90
64869;DHT22;51349;52.424;10.840;2022-09-25T00:06:42;12.20;99.90
64869;DHT22;51349;52.424;10.840;2022-09-25T00:11:43;12.20;99.90
64869;DHT22;51349;52.424;10.840;2022-09-25T00:16:43;12.20;99.90
64869;DHT22;51349;52.424;10.840;2022-09-25T00:21:44;12.20;99.90
64869;DHT22;51349;52.424;10.840;2022-09-25T00:26:45;12.20;99.90
64869;DHT22;51349;52.424;10.840;2022-09-25T00:31:46;12.20;99.90
64869;DHT22;51349;52.424;10.840;2022-09-25T00:36:46;12.20;99.90
64869;DHT22;51349;52.424;10.840;2022-09-25T00:41:47;12.20;99.90
64869;DHT22;51349;52.424;10.840;2022-09-25T00:46:47;12.10;99.90
64869;DHT22;51349;52.424;10.840;2022-09-25T00:51:58;12.10;99.90
64869;DHT22;51349;52.424;10.840;2022-09-25T00:57:05;12.10;99.90
64869;DHT22;51349;52.424;10.840;2022-09-25T01:02:10;12.20;99.90
64869;DHT22;51349;52.424;10.840;2022-09-25T01:07:13;12.10;99.90
64869;DHT22;51349;52.424;10.840;2022-09-25T01:12:15;12.10;99.90
64869;DHT22;51349;52.424;10.840;2022-09-25T01:17:23;12.10;99.90
64869;DHT22;51349;52.424;10.840;2022-09-25T01:22:43;12.10;99.90
64869;DHT22;51349;52.424;10.840;2022-09-25T01:33:12;12.10;99.90
64869;DHT22;51349;52.424;10.840;2022-09-25T01:38:25;12.00;99.90
64869;DHT22;51349;52.424;10.840;2022-09-25T01:43:37;12.10;99.90
64869;DHT22;51349;52.424;10.840;2022-09-25T01:48:41;12.00;99.90
64869;DHT22;51349;52.424;10.840;2022-09-25T01:53:47;12.00;99.90
64869;DHT22;51349;52.424;10.840;2022-09-25T01:58:56;12.00;99.90
64869;DHT22;51349;52.424;10.840;2022-09-25T02:04:08;12.00;99.90
64869;DHT22;51349;52.424;10.840;2022-09-25T02:09:15;12.00;99.90
64869;DHT22;51349;52.424;10.840;2022-09-25T02:14:32;12.10;99.90
64869;DHT22;51349;52.424;10.840;2022-09-25T02:19:34;12.00;99.90
64869;DHT22;51349;52.424;10.840;2022-09-25T02:25:04;12.00;99.90
64869;DHT22;51349;52.424;10.840;2022-09-25T02:30:06;12.00;99.90
64869;DHT22;51349;52.424;10.840;2022-09-25T02:35:07;12.00;99.90
64869;DHT22;51349;52.424;10.840;2022-09-25T02:40:09;12.00;99.90
64869;DHT22;51349;52.424;10.840;2022-09-25T02:56:12;12.00;99.90
64869;DHT22;51349;52.424;10.840;2022-09-25T03:01:16;12.10;99.90
64869;DHT22;51349;52.424;10.840;2022-09-25T03:06:19;12.00;99.90
64869;DHT22;51349;52.424;10.840;2022-09-25T03:11:21;12.00;99.90
64869;DHT22;51349;52.424;10.840;2022-09-25T03:16:49;12.10;99.90
64869;DHT22;51349;52.424;10.840;2022-09-25T03:21:50;12.10;99.90
64869;DHT22;51349;52.424;10.840;2022-09-25T03:26:52;12.10;99.90
64869;DHT22;51349;52.424;10.840;2022-09-25T03:31:53;12.10;99.90
64869;DHT22;51349;52.424;10.840;2022-09-25T03:36:53;12.10;99.90
64869;DHT22;51349;52.424;10.840;2022-09-25T03:41:54;12.10;99.90
64869;DHT22;51349;52.424;10.840;2022-09-25T03:46:54;12.10;99.90
64869;DHT22;51349;52.424;10.840;2022-09-25T03:51:55;12.10;99.90
64869;DHT22;51349;52.424;10.840;2022-09-25T03:56:56;12.00;99.90
64869;DHT22;51349;52.424;10.840;2022-09-25T04:01:57;12.10;99.90
64869;DHT22;51349;52.424;10.840;2022-09-25T04:06:57;12.10;99.90
64869;DHT22;51349;52.424;10.840;2022-09-25T04:11:58;12.10;99.90
64869;DHT22;51349;52.424;10.840;2022-09-25T04:16:59;12.10;99.90
64869;DHT22;51349;52.424;10.840;2022-09-25T04:21:59;12.10;99.90
64869;DHT22;51349;52.424;10.840;2022-09-25T04:27:00;12.10;99.90
64869;DHT22;51349;52.424;10.840;2022-09-25T04:32:01;12.10;99.90
64869;DHT22;51349;52.424;10.840;2022-09-25T04:37:23;12.10;99.90
64869;DHT22;51349;52.424;10.840;2022-09-25T04:42:25;12.10;99.90
64869;DHT22;51349;52.424;10.840;2022-09-25T04:47:27;12.10;99.90
64869;DHT22;51349;52.424;10.840;2022-09-25T04:52:31;12.10;99.90
64869;DHT22;51349;52.424;10.840;2022-09-25T04:57:31;12.10;99.90
64869;DHT22;51349;52.424;10.840;2022-09-25T05:02:33;12.10;99.90
64869;DHT22;51349;52.424;10.840;2022-09-25T05:07:33;12.20;99.90
64869;DHT22;51349;52.424;10.840;2022-09-25T05:12:34;12.20;99.90
64869;DHT22;51349;52.424;10.840;2022-09-25T05:17:36;12.10;99.90
64869;DHT22;51349;52.424;10.840;2022-09-25T05:22:36;12.10;99.90
64869;DHT22;51349;52.424;10.840;2022-09-25T05:27:37;12.10;99.90
64869;DHT22;51349;52.424;10.840;2022-09-25T05:32:38;12.10;99.90
64869;DHT22;51349;52.424;10.840;2022-09-25T05:37:38;12.10;99.90
64869;DHT22;51349;52.424;10.840;2022-09-25T05:42:39;12.00;99.90
64869;DHT22;51349;52.424;10.840;2022-09-25T05:47:40;12.10;99.90
64869;DHT22;51349;52.424;10.840;2022-09-25T05:52:41;12.10;99.90
64869;DHT22;51349;52.424;10.840;2022-09-25T05:57:42;12.00;99.90
64869;DHT22;51349;52.424;10.840;2022-09-25T06:02:43;12.00;99.90
64869;DHT22;51349;52.424;10.840;2022-09-25T06:07:43;12.00;99.90
64869;DHT22;51349;52.424;10.840;2022-09-25T06:12:44;12.00;99.90
64869;DHT22;51349;52.424;10.840;2022-09-25T06:17:44;12.10;99.90
64869;DHT22;51349;52.424;10.840;2022-09-25T06:22:53;12.00;99.90
64869;DHT22;51349;52.424;10.840;2022-09-25T06:27:56;12.10;99.90
64869;DHT22;51349;52.424;10.840;2022-09-25T06:32:57;12.10;99.90
64869;DHT22;51349;52.424;10.840;2022-09-25T06:38:00;12.10;99.90
64869;DHT22;51349;52.424;10.840;2022-09-25T06:43:02;12.10;99.90
64869;DHT22;51349;52.424;10.840;2022-09-25T06:48:06;12.10;99.90
64869;DHT22;51349;52.424;10.840;2022-09-25T06:53:08;12.10;99.90
64869;DHT22;51349;52.424;10.840;2022-09-25T06:58:13;12.10;99.90
64869;DHT22;51349;52.424;10.840;2022-09-25T07:03:14;12.10;99.90
64869;DHT22;51349;52.424;10.840;2022-09-25T07:08:33;12.10;99.90
64869;DHT22;51349;52.424;10.840;2022-09-25T07:13:35;12.20;99.90
64869;DHT22;51349;52.424;10.840;2022-09-25T07:18:36;12.20;99.90
64869;DHT22;51349;52.424;10.840;2022-09-25T07:23:38;12.20;99.90
64869;DHT22;51349;52.424;10.840;2022-09-25T07:28:42;12.20;99.90
64869;DHT22;51349;52.424;10.840;2022-09-25T07:33:43;12.20;99.90
64869;DHT22;51349;52.424;10.840;2022-09-25T07:38:48;12.20;99.90
64869;DHT22;51349;52.424;10.840;2022-09-25T07:43:53;12.30;99.90
64869;DHT22;51349;52.424;10.840;2022-09-25T07:48:57;12.30;99.90
64869;DHT22;51349;52.424;10.840;2022-09-25T07:53:58;12.40;99.90
64869;DHT22;51349;52.424;10.840;2022-09-25T07:58:58;12.30;99.90
64869;DHT22;51349;52.424;10.840;2022-09-25T08:03:59;12.30;99.90
64869;DHT22;51349;52.424;10.840;2022-09-25T08:09:00;12.40;99.90
64869;DHT22;51349;52.424;10.840;2022-09-25T08:14:00;12.40;99.90
64869;DHT22;51349;52.424;10.840;2022-09-25T08:19:02;12.40;99.90
64869;DHT22;51349;52.424;10.840;2022-09-25T08:24:03;12.40;99.90
64869;DHT22;51349;52.424;10.840;2022-09-25T08:29:04;12.40;99.90
64869;DHT22;51349;52.424;10.840;2022-09-25T08:34:13;12.40;99.90
64869;DHT22;51349;52.424;10.840;2022-09-25T08:39:16;12.40;99.90
64869;DHT22;51349;52.424;10.840;2022-09-25T08:44:37;12.40;99.90
64869;DHT22;51349;52.424;10.840;2022-09-25T08:49:44;12.50;99.90
64869;DHT22;51349;52.424;10.840;2022-09-25T08:54:45;12.40;99.90
64869;DHT22;51349;52.424;10.840;2022-09-25T08:59:50;12.40;99.90
64869;DHT22;51349;52.424;10.840;2022-09-25T09:04:56;12.40;99.90
64869;DHT22;51349;52.424;10.840;2022-09-25T09:20:43;12.40;99.90
64869;DHT22;51349;52.424;10.840;2022-09-25T09:42:11;12.60;99.90
64869;DHT22;51349;52.424;10.840;2022-09-25T09:52:53;12.70;99.90
64869;DHT22;51349;52.424;10.840;2022-09-25T09:58:03;12.70;99.90
64869;DHT22;51349;52.424;10.840;2022-09-25T10:03:16;12.80;99.90
64869;DHT22;51349;52.424;10.840;2022-09-25T10:08:18;12.90;99.90
64869;DHT22;51349;52.424;10.840;2022-09-25T10:13:22;12.90;99.90
64869;DHT22;51349;52.424;10.840;2022-09-25T10:23:54;12.80;99.90
64869;DHT22;51349;52.424;10.840;2022-09-25T10:28:57;12.70;99.90
64869;DHT22;51349;52.424;10.840;2022-09-25T10:34:05;12.80;99.90
64869;DHT22;51349;52.424;10.840;2022-09-25T10:39:25;12.90;99.90
64869;DHT22;51349;52.424;10.840;2022-09-25T10:44:32;13.00;99.90
64869;DHT22;51349;52.424;10.840;2022-09-25T10:49:45;12.90;99.90
64869;DHT22;51349;52.424;10.840;2022-09-25T10:55:20;12.90;99.90
64869;DHT22;51349;52.424;10.840;2022-09-25T11:00:25;13.00;99.90
64869;DHT22;51349;52.424;10.840;2022-09-25T11:05:31;13.20;99.90
64869;DHT22;51349;52.424;10.840;2022-09-25T11:10:36;13.40;99.90
64869;DHT22;51349;52.424;10.840;2022-09-25T11:15:47;13.40;99.90
64869;DHT22;51349;52.424;10.840;2022-09-25T11:21:03;13.40;99.90
64869;DHT22;51349;52.424;10.840;2022-09-25T11:26:18;13.50;99.90
64869;DHT22;51349;52.424;10.840;2022-09-25T11:31:30;13.50;99.90
64869;DHT22;51349;52.424;10.840;2022-09-25T11:36:40;13.60;99.90
64869;DHT22;51349;52.424;10.840;2022-09-25T11:41:52;13.70;99.90
64869;DHT22;51349;52.424;10.840;2022-09-25T12:13:36;13.90;99.90
64869;DHT22;51349;52.424;10.840;2022-09-25T12:39:41;13.80;99.90
64869;DHT22;51349;52.424;10.840;2022-09-25T12:44:48;13.80;99.90
64869;DHT22;51349;52.424;10.840;2022-09-25T12:50:03;13.80;99.90
64869;DHT22;51349;52.424;10.840;2022-09-25T12:55:16;13.80;99.90
64869;DHT22;51349;52.424;10.840;2022-09-25T13:00:22;13.90;99.90
64869;DHT22;51349;52.424;10.840;2022-09-25T13:05:42;13.90;99.90
64869;DHT22;51349;52.424;10.840;2022-09-25T13:10:46;13.90;99.90
64869;DHT22;51349;52.424;10.840;2022-09-25T13:15:54;14.10;99.90
64869;DHT22;51349;52.424;10.840;2022-09-25T13:20:56;14.10;99.90
64869;DHT22;51349;52.424;10.840;2022-09-25T13:26:00;14.20;99.90
64869;DHT22;51349;52.424;10.840;2022-09-25T13:31:05;14.40;99.90
64869;DHT22;51349;52.424;10.840;2022-09-25T13:36:08;14.30;99.90
64869;DHT22;51349;52.424;10.840;2022-09-25T13:41:11;14.30;99.90
64869;DHT22;51349;52.424;10.840;2022-09-25T13:56:23;14.10;99.90
64869;DHT22;51349;52.424;10.840;2022-09-25T14:01:34;14.00;99.90
64869;DHT22;51349;52.424;10.840;2022-09-25T14:06:35;14.00;99.90
64869;DHT22;51349;52.424;10.840;2022-09-25T14:11:40;14.10;99.90
64869;DHT22;51349;52.424;10.840;2022-09-25T14:16:47;14.20;99.90
64869;DHT22;51349;52.424;10.840;2022-09-25T14:21:52;14.20;99.90
64869;DHT22;51349;52.424;10.840;2022-09-25T14:26:53;14.30;99.90
64869;DHT22;51349;52.424;10.840;2022-09-25T14:48:03;14.50;99.90
64869;DHT22;51349;52.424;10.840;2022-09-25T14:53:11;14.70;99.90
64869;DHT22;51349;52.424;10.840;2022-09-25T14:58:19;14.80;99.90
64869;DHT22;51349;52.424;10.840;2022-09-25T15:03:27;15.00;99.90
64869;DHT22;51349;52.424;10.840;2022-09-25T15:08:36;14.80;99.90
64869;DHT22;51349;52.424;10.840;2022-09-25T15:13:37;14.90;99.90
64869;DHT22;51349;52.424;10.840;2022-09-25T15:18:40;14.90;99.90
64869;DHT22;51349;52.424;10.840;2022-09-25T15:23:41;14.90;99.90
64869;DHT22;51349;52.424;10.840;2022-09-25T15:28:43;14.60;99.90
64869;DHT22;51349;52.424;10.840;2022-09-25T15:34:07;14.50;99.90
64869;DHT22;51349;52.424;10.840;2022-09-25T15:39:16;14.30;99.90
64869;DHT22;51349;52.424;10.840;2022-09-25T15:44:22;14.20;99.90
64869;DHT22;51349;52.424;10.840;2022-09-25T15:59:47;14.10;99.90
64869;DHT22;51349;52.424;10.840;2022-09-25T16:05:09;14.00;99.90
64869;DHT22;51349;52.424;10.840;2022-09-25T16:20:39;13.80;99.90
64869;DHT22;51349;52.424;10.840;2022-09-25T16:25:44;13.70;99.90
64869;DHT22;51349;52.424;10.840;2022-09-25T16:30:57;13.60;99.90
64869;DHT22;51349;52.424;10.840;2022-09-25T16:36:10;13.50;99.90
64869;DHT22;51349;52.424;10.840;2022-09-25T16:41:21;13.30;99.90
64869;DHT22;51349;52.424;10.840;2022-09-25T16:46:22;13.20;99.90
64869;DHT22;51349;52.424;10.840;2022-09-25T16:51:24;13.00;99.90
64869;DHT22;51349;52.424;10.840;2022-09-25T16:56:30;12.90;99.90
64869;DHT22;51349;52.424;10.840;2022-09-25T17:01:31;12.90;99.90
64869;DHT22;51349;52.424;10.840;2022-09-25T17:06:32;12.70;99.90
64869;DHT22;51349;52.424;10.840;2022-09-25T17:11:40;12.60;99.90
64869;DHT22;51349;52.424;10.840;2022-09-25T17:16:42;12.40;99.90
64869;DHT22;51349;52.424;10.840;2022-09-25T17:21:47;12.10;99.90
64869;DHT22;51349;52.424;10.840;2022-09-25T17:26:49;11.80;99.90
64869;DHT22;51349;52.424;10.840;2022-09-25T17:31:51;11.90;99.90
64869;DHT22;51349;52.424;10.840;2022-09-25T17:36:51;11.60;99.90
64869;DHT22;51349;52.424;10.840;2022-09-25T17:41:52;11.60;99.90
64869;DHT22;51349;52.424;10.840;2022-09-25T17:46:53;11.40;99.90
64869;DHT22;51349;52.424;10.840;2022-09-25T17:52:01;11.40;99.90
64869;DHT22;51349;52.424;10.840;2022-09-25T17:57:02;11.20;99.90
64869;DHT22;51349;52.424;10.840;2022-09-25T18:02:03;11.20;99.90
64869;DHT22;51349;52.424;10.840;2022-09-25T18:07:04;11.00;99.90
64869;DHT22;51349;52.424;10.840;2022-09-25T18:12:06;11.00;99.90
64869;DHT22;51349;52.424;10.840;2022-09-25T18:17:07;10.90;99.90
64869;DHT22;51349;52.424;10.840;2022-09-25T18:22:08;10.70;99.90
64869;DHT22;51349;52.424;10.840;2022-09-25T18:27:18;10.50;99.90
64869;DHT22;51349;52.424;10.840;2022-09-25T18:32:19;10.70;99.90
64869;DHT22;51349;52.424;10.840;2022-09-25T18:37:20;10.50;99.90
64869;DHT22;51349;52.424;10.840;2022-09-25T18:42:21;10.60;99.90
64869;DHT22;51349;52.424;10.840;2022-09-25T18:47:22;10.40;99.90
64869;DHT22;51349;52.424;10.840;2022-09-25T18:52:23;10.40;99.90
64869;DHT22;51349;52.424;10.840;2022-09-25T18:57:23;10.30;99.90
64869;DHT22;51349;52.424;10.840;2022-09-25T19:02:27;10.20;99.90
64869;DHT22;51349;52.424;10.840;2022-09-25T19:07:28;10.10;99.90
64869;DHT22;51349;52.424;10.840;2022-09-25T19:12:28;10.00;99.90
64869;DHT22;51349;52.424;10.840;2022-09-25T19:17:29;10.00;99.90
64869;DHT22;51349;52.424;10.840;2022-09-25T19:22:30;10.00;99.90
64869;DHT22;51349;52.424;10.840;2022-09-25T19:27:32;10.10;99.90
64869;DHT22;51349;52.424;10.840;2022-09-25T19:32:32;10.10;99.90
64869;DHT22;51349;52.424;10.840;2022-09-25T19:37:33;10.10;99.90
64869;DHT22;51349;52.424;10.840;2022-09-25T19:42:33;10.00;99.90
64869;DHT22;51349;52.424;10.840;2022-09-25T19:47:35;10.00;99.90
64869;DHT22;51349;52.424;10.840;2022-09-25T19:52:36;9.80;99.90
64869;DHT22;51349;52.424;10.840;2022-09-25T19:57:36;9.70;99.90
64869;DHT22;51349;52.424;10.840;2022-09-25T20:02:37;9.70;99.90
64869;DHT22;51349;52.424;10.840;2022-09-25T20:07:41;9.60;99.90
64869;DHT22;51349;52.424;10.840;2022-09-25T20:12:43;9.50;99.90
64869;DHT22;51349;52.424;10.840;2022-09-25T20:17:43;9.40;99.90
64869;DHT22;51349;52.424;10.840;2022-09-25T20:22:47;9.30;99.90
64869;DHT22;51349;52.424;10.840;2022-09-25T20:27:49;9.30;99.90
64869;DHT22;51349;52.424;10.840;2022-09-25T20:32:51;9.30;99.90
64869;DHT22;51349;52.424;10.840;2022-09-25T20:37:51;9.10;99.90
64869;DHT22;51349;52.424;10.840;2022-09-25T20:42:52;9.00;99.90
64869;DHT22;51349;52.424;10.840;2022-09-25T20:47:53;9.00;99.90
64869;DHT22;51349;52.424;10.840;2022-09-25T20:52:54;8.80;99.90
64869;DHT22;51349;52.424;10.840;2022-09-25T20:57:57;8.90;99.90
64869;DHT22;51349;52.424;10.840;2022-09-25T21:02:58;8.90;99.90
64869;DHT22;51349;52.424;10.840;2022-09-25T21:08:00;8.90;99.90
64869;DHT22;51349;52.424;10.840;2022-09-25T21:13:01;8.70;99.90
64869;DHT22;51349;52.424;10.840;2022-09-25T21:18:04;8.70;99.90
64869;DHT22;51349;52.424;10.840;2022-09-25T21:23:05;8.60;99.90
64869;DHT22;51349;52.424;10.840;2022-09-25T21:28:05;8.50;99.90
64869;DHT22;51349;52.424;10.840;2022-09-25T21:33:06;8.50;99.90
64869;DHT22;51349;52.424;10.840;2022-09-25T21:38:06;8.40;99.90
64869;DHT22;51349;52.424;10.840;2022-09-25T21:43:07;8.40;99.90
64869;DHT22;51349;52.424;10.840;2022-09-25T21:48:08;8.40;99.90
64869;DHT22;51349;52.424;10.840;2022-09-25T21:53:08;8.50;99.90
64869;DHT22;51349;52.424;10.840;2022-09-25T21:58:09;8.50;99.90
64869;DHT22;51349;52.424;10.840;2022-09-25T22:03:09;8.40;99.90
64869;DHT22;51349;52.424;10.840;2022-09-25T22:08:10;8.30;99.90
64869;DHT22;51349;52.424;10.840;2022-09-25T22:13:10;8.20;99.90
64869;DHT22;51349;52.424;10.840;2022-09-25T22:18:11;8.10;99.90
64869;DHT22;51349;52.424;10.840;2022-09-25T22:23:11;8.00;99.90
64869;DHT22;51349;52.424;10.840;2022-09-25T22:28:12;8.00;99.90
64869;DHT22;51349;52.424;10.840;2022-09-25T22:33:16;8.10;99.90
64869;DHT22;51349;52.424;10.840;2022-09-25T22:38:19;8.00;99.90
64869;DHT22;51349;52.424;10.840;2022-09-25T22:43:20;7.90;99.90
64869;DHT22;51349;52.424;10.840;2022-09-25T22:48:21;7.90;99.90
64869;DHT22;51349;52.424;10.840;2022-09-25T22:53:22;7.80;99.90
64869;DHT22;51349;52.424;10.840;2022-09-25T22:58:23;7.70;99.90
64869;DHT22;51349;52.424;10.840;2022-09-25T23:03:24;7.80;99.90
64869;DHT22;51349;52.424;10.840;2022-09-25T23:08:24;7.60;99.90
64869;DHT22;51349;52.424;10.840;2022-09-25T23:13:25;7.60;99.90
64869;DHT22;51349;52.424;10.840;2022-09-25T23:18:25;7.60;99.90
64869;DHT22;51349;52.424;10.840;2022-09-25T23:23:29;7.70;99.90
64869;DHT22;51349;52.424;10.840;2022-09-25T23:28:32;7.90;99.90
64869;DHT22;51349;52.424;10.840;2022-09-25T23:33:33;8.00;99.90
64869;DHT22;51349;52.424;10.840;2022-09-25T23:38:35;8.10;99.90
64869;DHT22;51349;52.424;10.840;2022-09-25T23:43:36;8.00;99.90
64869;DHT22;51349;52.424;10.840;2022-09-25T23:48:37;8.10;99.90
64869;DHT22;51349;52.424;10.840;2022-09-25T23:53:38;8.10;99.90
64869;DHT22;51349;52.424;10.840;2022-09-25T23:58:40;8.20;99.90
